sensor_id;sensor_type;location;lat;lon;timestamp;P1;durP1;ratioP1;P2;durP2;ratioP2
6203;SDS011;3135;42.602;23.468;2023-11-21T00:00:53;3.25;;;2.05;;
6203;SDS011;3135;42.602;23.468;2023-11-21T00:03:18;3.77;;;1.70;;
6203;SDS011;3135;42.602;23.468;2023-11-21T00:05:44;1.90;;;1.30;;
6203;SDS011;3135;42.602;23.468;2023-11-21T00:08:09;2.90;;;1.50;;
6203;SDS011;3135;42.602;23.468;2023-11-21T00:10:35;4.75;;;1.30;;
6203;SDS011;3135;42.602;23.468;2023-11-21T00:13:03;5.70;;;2.55;;
6203;SDS011;3135;42.602;23.468;2023-11-21T00:15:28;15.50;;;5.70;;
6203;SDS011;3135;42.602;23.468;2023-11-21T00:17:54;19.40;;;6.43;;
6203;SDS011;3135;42.602;23.468;2023-11-21T00:20:19;9.17;;;4.50;;
6203;SDS011;3135;42.602;23.468;2023-11-21T00:22:45;5.55;;;2.83;;
6203;SDS011;3135;42.602;23.468;2023-11-21T00:25:11;5.07;;;2.55;;
6203;SDS011;3135;42.602;23.468;2023-11-21T00:27:39;3.42;;;1.90;;
6203;SDS011;3135;42.602;23.468;2023-11-21T00:30:05;3.60;;;1.90;;
6203;SDS011;3135;42.602;23.468;2023-11-21T00:32:31;3.73;;;1.80;;
6203;SDS011;3135;42.602;23.468;2023-11-21T00:34:56;2.43;;;1.73;;
6203;SDS011;3135;42.602;23.468;2023-11-21T00:37:22;4.93;;;1.77;;
6203;SDS011;3135;42.602;23.468;2023-11-21T00:39:50;2.17;;;1.58;;
6203;SDS011;3135;42.602;23.468;2023-11-21T00:42:15;4.20;;;1.83;;
6203;SDS011;3135;42.602;23.468;2023-11-21T00:44:40;1.93;;;1.40;;
6203;SDS011;3135;42.602;23.468;2023-11-21T00:47:06;1.40;;;1.20;;
6203;SDS011;3135;42.602;23.468;2023-11-21T00:49:33;2.22;;;1.70;;
6203;SDS011;3135;42.602;23.468;2023-11-21T00:51:58;7.45;;;2.65;;
6203;SDS011;3135;42.602;23.468;2023-11-21T00:54:24;6.77;;;2.40;;
6203;SDS011;3135;42.602;23.468;2023-11-21T00:56:49;2.80;;;1.90;;
6203;SDS011;3135;42.602;23.468;2023-11-21T00:59:14;2.73;;;1.67;;
6203;SDS011;3135;42.602;23.468;2023-11-21T01:01:40;2.33;;;1.40;;
6203;SDS011;3135;42.602;23.468;2023-11-21T01:04:05;2.33;;;1.60;;
6203;SDS011;3135;42.602;23.468;2023-11-21T01:06:32;3.30;;;1.90;;
6203;SDS011;3135;42.602;23.468;2023-11-21T01:08:57;3.53;;;2.00;;
6203;SDS011;3135;42.602;23.468;2023-11-21T01:11:23;6.38;;;2.90;;
6203;SDS011;3135;42.602;23.468;2023-11-21T01:13:48;6.80;;;4.15;;
6203;SDS011;3135;42.602;23.468;2023-11-21T01:16:14;4.60;;;2.63;;
6203;SDS011;3135;42.602;23.468;2023-11-21T01:18:39;3.75;;;2.33;;
6203;SDS011;3135;42.602;23.468;2023-11-21T01:21:05;5.40;;;2.17;;
6203;SDS011;3135;42.602;23.468;2023-11-21T01:23:31;4.47;;;2.30;;
6203;SDS011;3135;42.602;23.468;2023-11-21T01:25:56;7.53;;;3.40;;
6203;SDS011;3135;42.602;23.468;2023-11-21T01:28:22;6.55;;;3.17;;
6203;SDS011;3135;42.602;23.468;2023-11-21T01:30:48;7.27;;;3.53;;
6203;SDS011;3135;42.602;23.468;2023-11-21T01:33:14;5.93;;;3.00;;
6203;SDS011;3135;42.602;23.468;2023-11-21T01:35:40;8.63;;;3.40;;
6203;SDS011;3135;42.602;23.468;2023-11-21T01:38:06;6.25;;;3.25;;
6203;SDS011;3135;42.602;23.468;2023-11-21T01:40:33;6.38;;;3.08;;
6203;SDS011;3135;42.602;23.468;2023-11-21T01:42:59;7.53;;;3.50;;
6203;SDS011;3135;42.602;23.468;2023-11-21T01:45:25;7.90;;;3.50;;
6203;SDS011;3135;42.602;23.468;2023-11-21T01:47:50;7.38;;;3.13;;
6203;SDS011;3135;42.602;23.468;2023-11-21T01:50:16;7.00;;;3.58;;
6203;SDS011;3135;42.602;23.468;2023-11-21T01:52:44;8.07;;;3.45;;
6203;SDS011;3135;42.602;23.468;2023-11-21T01:55:13;5.78;;;2.85;;
6203;SDS011;3135;42.602;23.468;2023-11-21T01:57:43;3.50;;;2.40;;
6203;SDS011;3135;42.602;23.468;2023-11-21T02:00:08;4.90;;;2.40;;
6203;SDS011;3135;42.602;23.468;2023-11-21T02:02:47;4.73;;;2.30;;
6203;SDS011;3135;42.602;23.468;2023-11-21T02:05:16;8.02;;;2.80;;
6203;SDS011;3135;42.602;23.468;2023-11-21T02:07:43;5.73;;;3.00;;
6203;SDS011;3135;42.602;23.468;2023-11-21T02:10:10;7.73;;;4.83;;
6203;SDS011;3135;42.602;23.468;2023-11-21T02:12:40;8.30;;;3.70;;
6203;SDS011;3135;42.602;23.468;2023-11-21T02:15:07;6.60;;;2.78;;
6203;SDS011;3135;42.602;23.468;2023-11-21T02:17:42;4.32;;;2.20;;
6203;SDS011;3135;42.602;23.468;2023-11-21T02:20:12;6.10;;;2.10;;
6203;SDS011;3135;42.602;23.468;2023-11-21T02:22:43;4.70;;;2.10;;
6203;SDS011;3135;42.602;23.468;2023-11-21T02:25:10;4.23;;;2.30;;
6203;SDS011;3135;42.602;23.468;2023-11-21T02:27:36;4.50;;;2.70;;
6203;SDS011;3135;42.602;23.468;2023-11-21T02:30:02;3.95;;;2.72;;
6203;SDS011;3135;42.602;23.468;2023-11-21T02:32:30;4.15;;;2.60;;
6203;SDS011;3135;42.602;23.468;2023-11-21T02:34:56;4.73;;;2.30;;
6203;SDS011;3135;42.602;23.468;2023-11-21T02:37:26;3.37;;;1.90;;
6203;SDS011;3135;42.602;23.468;2023-11-21T02:39:51;6.10;;;2.10;;
6203;SDS011;3135;42.602;23.468;2023-11-21T02:42:17;8.60;;;2.47;;
6203;SDS011;3135;42.602;23.468;2023-11-21T02:44:43;9.15;;;3.20;;
6203;SDS011;3135;42.602;23.468;2023-11-21T02:47:09;4.22;;;2.10;;
6203;SDS011;3135;42.602;23.468;2023-11-21T02:49:35;3.05;;;1.88;;
6203;SDS011;3135;42.602;23.468;2023-11-21T02:52:01;3.20;;;1.80;;
6203;SDS011;3135;42.602;23.468;2023-11-21T02:54:27;3.73;;;1.90;;
6203;SDS011;3135;42.602;23.468;2023-11-21T02:56:52;4.15;;;2.22;;
6203;SDS011;3135;42.602;23.468;2023-11-21T02:59:18;6.43;;;2.50;;
6203;SDS011;3135;42.602;23.468;2023-11-21T03:01:44;4.18;;;2.42;;
6203;SDS011;3135;42.602;23.468;2023-11-21T03:04:11;4.65;;;2.58;;
6203;SDS011;3135;42.602;23.468;2023-11-21T03:06:43;5.38;;;2.70;;
6203;SDS011;3135;42.602;23.468;2023-11-21T03:09:09;6.15;;;2.85;;
6203;SDS011;3135;42.602;23.468;2023-11-21T03:11:36;6.53;;;3.10;;
6203;SDS011;3135;42.602;23.468;2023-11-21T03:14:02;6.57;;;2.97;;
6203;SDS011;3135;42.602;23.468;2023-11-21T03:16:28;6.80;;;3.00;;
6203;SDS011;3135;42.602;23.468;2023-11-21T03:18:54;6.57;;;3.03;;
6203;SDS011;3135;42.602;23.468;2023-11-21T03:21:19;6.35;;;2.45;;
6203;SDS011;3135;42.602;23.468;2023-11-21T03:23:45;3.88;;;2.35;;
6203;SDS011;3135;42.602;23.468;2023-11-21T03:26:13;3.70;;;1.70;;
6203;SDS011;3135;42.602;23.468;2023-11-21T03:28:39;2.63;;;1.80;;
6203;SDS011;3135;42.602;23.468;2023-11-21T03:31:04;3.40;;;1.93;;
6203;SDS011;3135;42.602;23.468;2023-11-21T03:33:31;3.75;;;2.53;;
6203;SDS011;3135;42.602;23.468;2023-11-21T03:35:57;5.05;;;1.80;;
6203;SDS011;3135;42.602;23.468;2023-11-21T03:38:23;2.67;;;1.70;;
6203;SDS011;3135;42.602;23.468;2023-11-21T03:40:48;3.92;;;1.70;;
6203;SDS011;3135;42.602;23.468;2023-11-21T03:43:14;3.30;;;1.98;;
6203;SDS011;3135;42.602;23.468;2023-11-21T03:45:39;2.67;;;1.63;;
6203;SDS011;3135;42.602;23.468;2023-11-21T03:48:06;2.45;;;1.83;;
6203;SDS011;3135;42.602;23.468;2023-11-21T03:50:32;3.10;;;2.13;;
6203;SDS011;3135;42.602;23.468;2023-11-21T03:52:57;3.78;;;2.47;;
6203;SDS011;3135;42.602;23.468;2023-11-21T03:55:23;3.27;;;2.10;;
6203;SDS011;3135;42.602;23.468;2023-11-21T03:57:51;4.75;;;2.78;;
6203;SDS011;3135;42.602;23.468;2023-11-21T04:00:19;3.72;;;2.72;;
6203;SDS011;3135;42.602;23.468;2023-11-21T04:02:47;5.00;;;2.65;;
6203;SDS011;3135;42.602;23.468;2023-11-21T04:05:13;5.17;;;2.77;;
6203;SDS011;3135;42.602;23.468;2023-11-21T04:07:39;2.85;;;2.30;;
6203;SDS011;3135;42.602;23.468;2023-11-21T04:10:05;4.90;;;2.60;;
6203;SDS011;3135;42.602;23.468;2023-11-21T04:12:33;3.28;;;1.70;;
6203;SDS011;3135;42.602;23.468;2023-11-21T04:14:59;1.83;;;1.27;;
6203;SDS011;3135;42.602;23.468;2023-11-21T04:17:25;1.70;;;1.20;;
6203;SDS011;3135;42.602;23.468;2023-11-21T04:19:50;3.27;;;1.40;;
6203;SDS011;3135;42.602;23.468;2023-11-21T04:22:16;5.90;;;2.40;;
6203;SDS011;3135;42.602;23.468;2023-11-21T04:24:41;3.30;;;1.93;;
6203;SDS011;3135;42.602;23.468;2023-11-21T04:27:06;4.30;;;2.13;;
6203;SDS011;3135;42.602;23.468;2023-11-21T04:29:32;6.35;;;3.30;;
6203;SDS011;3135;42.602;23.468;2023-11-21T04:31:58;5.03;;;2.92;;
6203;SDS011;3135;42.602;23.468;2023-11-21T04:34:23;3.72;;;2.22;;
6203;SDS011;3135;42.602;23.468;2023-11-21T04:36:49;3.28;;;1.90;;
6203;SDS011;3135;42.602;23.468;2023-11-21T04:39:15;4.28;;;2.20;;
6203;SDS011;3135;42.602;23.468;2023-11-21T04:41:40;4.28;;;2.72;;
6203;SDS011;3135;42.602;23.468;2023-11-21T04:44:06;3.58;;;2.40;;
6203;SDS011;3135;42.602;23.468;2023-11-21T04:46:31;3.22;;;1.95;;
6203;SDS011;3135;42.602;23.468;2023-11-21T04:48:57;4.63;;;2.30;;
6203;SDS011;3135;42.602;23.468;2023-11-21T04:51:23;4.47;;;2.65;;
6203;SDS011;3135;42.602;23.468;2023-11-21T04:53:49;3.23;;;2.30;;
6203;SDS011;3135;42.602;23.468;2023-11-21T04:56:14;2.77;;;1.87;;
6203;SDS011;3135;42.602;23.468;2023-11-21T04:58:41;1.97;;;1.10;;
6203;SDS011;3135;42.602;23.468;2023-11-21T05:01:07;2.30;;;1.30;;
6203;SDS011;3135;42.602;23.468;2023-11-21T05:03:33;5.05;;;1.90;;
6203;SDS011;3135;42.602;23.468;2023-11-21T05:05:59;4.60;;;2.38;;
6203;SDS011;3135;42.602;23.468;2023-11-21T05:08:24;6.38;;;3.13;;
6203;SDS011;3135;42.602;23.468;2023-11-21T05:10:51;5.57;;;2.28;;
6203;SDS011;3135;42.602;23.468;2023-11-21T05:13:17;7.30;;;2.97;;
6203;SDS011;3135;42.602;23.468;2023-11-21T05:15:43;4.13;;;2.30;;
6203;SDS011;3135;42.602;23.468;2023-11-21T05:18:09;6.30;;;2.42;;
6203;SDS011;3135;42.602;23.468;2023-11-21T05:20:35;4.30;;;2.27;;
6203;SDS011;3135;42.602;23.468;2023-11-21T05:23:01;4.50;;;3.00;;
6203;SDS011;3135;42.602;23.468;2023-11-21T05:25:26;3.10;;;1.90;;
6203;SDS011;3135;42.602;23.468;2023-11-21T05:27:52;2.50;;;1.40;;
6203;SDS011;3135;42.602;23.468;2023-11-21T05:30:18;3.47;;;1.70;;
6203;SDS011;3135;42.602;23.468;2023-11-21T05:32:44;2.17;;;1.47;;
6203;SDS011;3135;42.602;23.468;2023-11-21T05:35:09;2.57;;;1.30;;
6203;SDS011;3135;42.602;23.468;2023-11-21T05:37:40;2.58;;;1.45;;
6203;SDS011;3135;42.602;23.468;2023-11-21T05:40:06;2.00;;;1.60;;
6203;SDS011;3135;42.602;23.468;2023-11-21T05:42:33;2.75;;;1.38;;
6203;SDS011;3135;42.602;23.468;2023-11-21T05:44:59;3.95;;;1.98;;
6203;SDS011;3135;42.602;23.468;2023-11-21T05:47:34;4.40;;;2.17;;
6203;SDS011;3135;42.602;23.468;2023-11-21T05:50:00;4.40;;;2.42;;
6203;SDS011;3135;42.602;23.468;2023-11-21T05:52:26;3.92;;;2.40;;
6203;SDS011;3135;42.602;23.468;2023-11-21T05:54:51;2.30;;;1.90;;
6203;SDS011;3135;42.602;23.468;2023-11-21T05:57:17;2.40;;;1.57;;
6203;SDS011;3135;42.602;23.468;2023-11-21T05:59:42;23.63;;;7.57;;
6203;SDS011;3135;42.602;23.468;2023-11-21T06:02:08;7.10;;;2.42;;
6203;SDS011;3135;42.602;23.468;2023-11-21T06:04:34;11.13;;;4.75;;
6203;SDS011;3135;42.602;23.468;2023-11-21T06:06:59;6.67;;;3.13;;
6203;SDS011;3135;42.602;23.468;2023-11-21T06:09:26;8.33;;;3.97;;
6203;SDS011;3135;42.602;23.468;2023-11-21T06:11:52;9.27;;;4.30;;
6203;SDS011;3135;42.602;23.468;2023-11-21T06:14:18;8.63;;;4.00;;
6203;SDS011;3135;42.602;23.468;2023-11-21T06:16:43;9.87;;;4.40;;
6203;SDS011;3135;42.602;23.468;2023-11-21T06:19:10;10.93;;;5.07;;
6203;SDS011;3135;42.602;23.468;2023-11-21T06:21:36;10.48;;;5.13;;
6203;SDS011;3135;42.602;23.468;2023-11-21T06:24:01;14.30;;;5.90;;
6203;SDS011;3135;42.602;23.468;2023-11-21T06:26:26;11.20;;;5.00;;
6203;SDS011;3135;42.602;23.468;2023-11-21T06:28:52;13.10;;;5.07;;
6203;SDS011;3135;42.602;23.468;2023-11-21T06:31:18;9.98;;;4.80;;
6203;SDS011;3135;42.602;23.468;2023-11-21T06:33:44;15.97;;;6.53;;
6203;SDS011;3135;42.602;23.468;2023-11-21T06:36:09;14.10;;;6.60;;
6203;SDS011;3135;42.602;23.468;2023-11-21T06:38:36;14.30;;;6.40;;
6203;SDS011;3135;42.602;23.468;2023-11-21T06:41:02;14.98;;;6.78;;
6203;SDS011;3135;42.602;23.468;2023-11-21T06:43:29;14.52;;;6.55;;
6203;SDS011;3135;42.602;23.468;2023-11-21T06:45:56;14.13;;;7.10;;
6203;SDS011;3135;42.602;23.468;2023-11-21T06:48:22;16.92;;;6.85;;
6203;SDS011;3135;42.602;23.468;2023-11-21T06:50:47;23.63;;;9.93;;
6203;SDS011;3135;42.602;23.468;2023-11-21T06:53:13;24.27;;;9.33;;
6203;SDS011;3135;42.602;23.468;2023-11-21T06:55:38;17.50;;;7.57;;
6203;SDS011;3135;42.602;23.468;2023-11-21T06:58:04;18.97;;;8.27;;
6203;SDS011;3135;42.602;23.468;2023-11-21T07:00:30;22.52;;;9.27;;
6203;SDS011;3135;42.602;23.468;2023-11-21T07:02:56;22.03;;;7.93;;
6203;SDS011;3135;42.602;23.468;2023-11-21T07:05:21;24.03;;;10.13;;
6203;SDS011;3135;42.602;23.468;2023-11-21T07:07:48;33.05;;;14.80;;
6203;SDS011;3135;42.602;23.468;2023-11-21T07:10:14;34.37;;;14.90;;
6203;SDS011;3135;42.602;23.468;2023-11-21T07:12:39;31.13;;;13.23;;
6203;SDS011;3135;42.602;23.468;2023-11-21T07:15:06;32.00;;;12.95;;
6203;SDS011;3135;42.602;23.468;2023-11-21T07:17:34;27.13;;;11.52;;
6203;SDS011;3135;42.602;23.468;2023-11-21T07:20:02;23.88;;;10.73;;
6203;SDS011;3135;42.602;23.468;2023-11-21T07:22:28;29.63;;;12.48;;
6203;SDS011;3135;42.602;23.468;2023-11-21T07:24:53;33.30;;;13.93;;
6203;SDS011;3135;42.602;23.468;2023-11-21T07:27:21;46.50;;;16.98;;
6203;SDS011;3135;42.602;23.468;2023-11-21T07:29:47;45.83;;;17.20;;
6203;SDS011;3135;42.602;23.468;2023-11-21T07:32:13;51.78;;;19.38;;
6203;SDS011;3135;42.602;23.468;2023-11-21T07:34:39;64.20;;;22.60;;
6203;SDS011;3135;42.602;23.468;2023-11-21T07:37:06;27.73;;;10.33;;
6203;SDS011;3135;42.602;23.468;2023-11-21T07:39:35;23.58;;;10.35;;
6203;SDS011;3135;42.602;23.468;2023-11-21T07:42:01;27.60;;;10.90;;
6203;SDS011;3135;42.602;23.468;2023-11-21T07:44:27;19.35;;;8.85;;
6203;SDS011;3135;42.602;23.468;2023-11-21T07:46:53;16.48;;;8.05;;
6203;SDS011;3135;42.602;23.468;2023-11-21T07:49:22;19.30;;;8.18;;
6203;SDS011;3135;42.602;23.468;2023-11-21T07:51:49;15.15;;;7.43;;
6203;SDS011;3135;42.602;23.468;2023-11-21T07:54:14;14.90;;;7.43;;
6203;SDS011;3135;42.602;23.468;2023-11-21T07:56:41;18.07;;;7.30;;
6203;SDS011;3135;42.602;23.468;2023-11-21T07:59:06;17.13;;;8.00;;
6203;SDS011;3135;42.602;23.468;2023-11-21T08:01:31;29.05;;;11.60;;
6203;SDS011;3135;42.602;23.468;2023-11-21T08:03:58;29.20;;;10.73;;
6203;SDS011;3135;42.602;23.468;2023-11-21T08:06:26;19.23;;;9.52;;
6203;SDS011;3135;42.602;23.468;2023-11-21T08:08:52;20.67;;;9.13;;
6203;SDS011;3135;42.602;23.468;2023-11-21T08:11:17;20.93;;;10.10;;
6203;SDS011;3135;42.602;23.468;2023-11-21T08:13:44;19.13;;;8.75;;
6203;SDS011;3135;42.602;23.468;2023-11-21T08:16:10;18.00;;;8.43;;
6203;SDS011;3135;42.602;23.468;2023-11-21T08:18:37;20.58;;;8.55;;
6203;SDS011;3135;42.602;23.468;2023-11-21T08:21:02;18.90;;;8.70;;
6203;SDS011;3135;42.602;23.468;2023-11-21T08:23:29;18.57;;;8.00;;
6203;SDS011;3135;42.602;23.468;2023-11-21T08:25:54;13.60;;;7.23;;
6203;SDS011;3135;42.602;23.468;2023-11-21T08:28:20;16.10;;;7.93;;
6203;SDS011;3135;42.602;23.468;2023-11-21T08:30:51;19.80;;;8.88;;
6203;SDS011;3135;42.602;23.468;2023-11-21T08:33:17;22.27;;;8.80;;
6203;SDS011;3135;42.602;23.468;2023-11-21T08:35:43;21.40;;;9.20;;
6203;SDS011;3135;42.602;23.468;2023-11-21T08:38:09;20.67;;;9.77;;
6203;SDS011;3135;42.602;23.468;2023-11-21T08:40:35;21.67;;;10.13;;
6203;SDS011;3135;42.602;23.468;2023-11-21T08:43:01;21.07;;;9.73;;
6203;SDS011;3135;42.602;23.468;2023-11-21T08:45:29;30.42;;;12.15;;
6203;SDS011;3135;42.602;23.468;2023-11-21T08:47:55;31.87;;;12.50;;
6203;SDS011;3135;42.602;23.468;2023-11-21T08:50:20;31.83;;;12.60;;
6203;SDS011;3135;42.602;23.468;2023-11-21T08:52:45;22.63;;;10.33;;
6203;SDS011;3135;42.602;23.468;2023-11-21T08:55:11;26.17;;;10.90;;
6203;SDS011;3135;42.602;23.468;2023-11-21T08:57:37;21.85;;;8.90;;
6203;SDS011;3135;42.602;23.468;2023-11-21T09:00:05;22.50;;;9.47;;
6203;SDS011;3135;42.602;23.468;2023-11-21T09:02:37;18.70;;;8.02;;
6203;SDS011;3135;42.602;23.468;2023-11-21T09:05:06;16.35;;;7.75;;
6203;SDS011;3135;42.602;23.468;2023-11-21T09:07:34;20.00;;;8.60;;
6203;SDS011;3135;42.602;23.468;2023-11-21T09:10:00;15.45;;;8.13;;
6203;SDS011;3135;42.602;23.468;2023-11-21T09:12:26;18.98;;;7.85;;
6203;SDS011;3135;42.602;23.468;2023-11-21T09:14:51;21.90;;;8.50;;
6203;SDS011;3135;42.602;23.468;2023-11-21T09:17:16;20.02;;;9.73;;
6203;SDS011;3135;42.602;23.468;2023-11-21T09:19:42;25.25;;;11.80;;
6203;SDS011;3135;42.602;23.468;2023-11-21T09:22:15;29.20;;;12.90;;
6203;SDS011;3135;42.602;23.468;2023-11-21T09:24:40;30.87;;;13.00;;
6203;SDS011;3135;42.602;23.468;2023-11-21T09:27:06;27.30;;;10.73;;
6203;SDS011;3135;42.602;23.468;2023-11-21T09:29:32;29.55;;;13.85;;
6203;SDS011;3135;42.602;23.468;2023-11-21T09:31:57;26.20;;;11.27;;
6203;SDS011;3135;42.602;23.468;2023-11-21T09:34:24;21.30;;;10.38;;
6203;SDS011;3135;42.602;23.468;2023-11-21T09:36:52;23.40;;;10.73;;
6203;SDS011;3135;42.602;23.468;2023-11-21T09:39:19;19.25;;;9.80;;
6203;SDS011;3135;42.602;23.468;2023-11-21T09:41:46;19.83;;;9.70;;
6203;SDS011;3135;42.602;23.468;2023-11-21T09:44:17;19.35;;;9.05;;
6203;SDS011;3135;42.602;23.468;2023-11-21T09:46:47;22.00;;;10.10;;
6203;SDS011;3135;42.602;23.468;2023-11-21T09:49:14;25.30;;;11.35;;
6203;SDS011;3135;42.602;23.468;2023-11-21T09:51:44;29.85;;;13.10;;
6203;SDS011;3135;42.602;23.468;2023-11-21T09:54:11;32.15;;;12.75;;
6203;SDS011;3135;42.602;23.468;2023-11-21T09:56:38;32.67;;;13.73;;
6203;SDS011;3135;42.602;23.468;2023-11-21T09:59:04;35.85;;;14.30;;
6203;SDS011;3135;42.602;23.468;2023-11-21T10:01:33;33.53;;;14.55;;
6203;SDS011;3135;42.602;23.468;2023-11-21T10:04:02;31.15;;;13.32;;
6203;SDS011;3135;42.602;23.468;2023-11-21T10:06:28;30.30;;;13.48;;
6203;SDS011;3135;42.602;23.468;2023-11-21T10:08:55;30.67;;;13.27;;
6203;SDS011;3135;42.602;23.468;2023-11-21T10:11:27;27.85;;;11.40;;
6203;SDS011;3135;42.602;23.468;2023-11-21T10:13:55;26.92;;;10.57;;
6203;SDS011;3135;42.602;23.468;2023-11-21T10:16:24;20.48;;;9.27;;
6203;SDS011;3135;42.602;23.468;2023-11-21T10:18:51;22.45;;;9.65;;
6203;SDS011;3135;42.602;23.468;2023-11-21T10:21:18;17.98;;;8.52;;
6203;SDS011;3135;42.602;23.468;2023-11-21T10:23:43;16.60;;;8.10;;
6203;SDS011;3135;42.602;23.468;2023-11-21T10:26:10;17.13;;;8.17;;
6203;SDS011;3135;42.602;23.468;2023-11-21T10:28:41;17.40;;;8.20;;
6203;SDS011;3135;42.602;23.468;2023-11-21T10:31:31;17.80;;;7.80;;
6203;SDS011;3135;42.602;23.468;2023-11-21T10:36:38;15.40;;;7.50;;
6203;SDS011;3135;42.602;23.468;2023-11-21T10:39:03;14.07;;;7.37;;
6203;SDS011;3135;42.602;23.468;2023-11-21T10:41:29;16.13;;;7.30;;
6203;SDS011;3135;42.602;23.468;2023-11-21T10:43:54;15.93;;;7.57;;
6203;SDS011;3135;42.602;23.468;2023-11-21T10:46:21;14.80;;;7.72;;
6203;SDS011;3135;42.602;23.468;2023-11-21T10:48:52;15.13;;;7.05;;
6203;SDS011;3135;42.602;23.468;2023-11-21T10:51:20;13.35;;;6.30;;
6203;SDS011;3135;42.602;23.468;2023-11-21T10:53:46;12.80;;;5.72;;
6203;SDS011;3135;42.602;23.468;2023-11-21T10:56:12;9.80;;;5.47;;
6203;SDS011;3135;42.602;23.468;2023-11-21T10:58:45;8.90;;;4.90;;
6203;SDS011;3135;42.602;23.468;2023-11-21T11:01:11;12.82;;;5.32;;
6203;SDS011;3135;42.602;23.468;2023-11-21T11:03:39;10.07;;;4.73;;
6203;SDS011;3135;42.602;23.468;2023-11-21T11:06:06;11.27;;;5.32;;
6203;SDS011;3135;42.602;23.468;2023-11-21T11:08:39;11.00;;;5.20;;
6203;SDS011;3135;42.602;23.468;2023-11-21T11:11:05;10.80;;;5.20;;
6203;SDS011;3135;42.602;23.468;2023-11-21T11:13:31;9.55;;;4.82;;
6203;SDS011;3135;42.602;23.468;2023-11-21T11:16:00;11.93;;;5.20;;
6203;SDS011;3135;42.602;23.468;2023-11-21T11:18:30;10.68;;;4.97;;
6203;SDS011;3135;42.602;23.468;2023-11-21T11:24:13;13.75;;;5.40;;
6203;SDS011;3135;42.602;23.468;2023-11-21T11:30:18;12.57;;;5.50;;
6203;SDS011;3135;42.602;23.468;2023-11-21T11:36:13;12.35;;;6.53;;
6203;SDS011;3135;42.602;23.468;2023-11-21T11:38:27;19.77;;;6.68;;
6203;SDS011;3135;42.602;23.468;2023-11-21T11:40:57;11.75;;;5.45;;
6203;SDS011;3135;42.602;23.468;2023-11-21T11:43:30;10.57;;;5.70;;
6203;SDS011;3135;42.602;23.468;2023-11-21T11:45:58;11.13;;;5.85;;
6203;SDS011;3135;42.602;23.468;2023-11-21T11:48:24;10.87;;;5.80;;
6203;SDS011;3135;42.602;23.468;2023-11-21T11:51:03;20.52;;;7.20;;
6203;SDS011;3135;42.602;23.468;2023-11-21T11:53:35;13.50;;;7.00;;
6203;SDS011;3135;42.602;23.468;2023-11-21T11:56:35;18.73;;;8.20;;
6203;SDS011;3135;42.602;23.468;2023-11-21T11:58:59;15.05;;;6.85;;
6203;SDS011;3135;42.602;23.468;2023-11-21T12:01:32;11.88;;;5.18;;
6203;SDS011;3135;42.602;23.468;2023-11-21T12:06:45;8.37;;;4.20;;
6203;SDS011;3135;42.602;23.468;2023-11-21T12:09:17;7.60;;;4.32;;
6203;SDS011;3135;42.602;23.468;2023-11-21T12:11:44;6.93;;;4.15;;
6203;SDS011;3135;42.602;23.468;2023-11-21T12:14:11;7.03;;;3.58;;
6203;SDS011;3135;42.602;23.468;2023-11-21T12:16:38;5.13;;;3.67;;
6203;SDS011;3135;42.602;23.468;2023-11-21T12:19:04;10.03;;;4.40;;
6203;SDS011;3135;42.602;23.468;2023-11-21T12:21:30;11.18;;;4.55;;
6203;SDS011;3135;42.602;23.468;2023-11-21T12:23:57;10.63;;;5.47;;
6203;SDS011;3135;42.602;23.468;2023-11-21T12:26:23;13.83;;;6.03;;
6203;SDS011;3135;42.602;23.468;2023-11-21T12:28:52;12.73;;;6.10;;
6203;SDS011;3135;42.602;23.468;2023-11-21T12:31:24;12.23;;;6.38;;
6203;SDS011;3135;42.602;23.468;2023-11-21T12:33:50;12.50;;;6.22;;
6203;SDS011;3135;42.602;23.468;2023-11-21T12:36:16;16.20;;;6.47;;
6203;SDS011;3135;42.602;23.468;2023-11-21T12:38:42;14.50;;;7.22;;
6203;SDS011;3135;42.602;23.468;2023-11-21T12:41:09;16.70;;;6.60;;
6203;SDS011;3135;42.602;23.468;2023-11-21T12:43:35;15.33;;;7.10;;
6203;SDS011;3135;42.602;23.468;2023-11-21T12:46:07;17.25;;;6.80;;
6203;SDS011;3135;42.602;23.468;2023-11-21T12:48:38;21.50;;;7.72;;
6203;SDS011;3135;42.602;23.468;2023-11-21T12:51:07;17.25;;;7.97;;
6203;SDS011;3135;42.602;23.468;2023-11-21T12:53:33;18.30;;;8.07;;
6203;SDS011;3135;42.602;23.468;2023-11-21T12:56:06;23.35;;;10.57;;
6203;SDS011;3135;42.602;23.468;2023-11-21T12:58:34;23.47;;;9.07;;
6203;SDS011;3135;42.602;23.468;2023-11-21T13:01:01;25.77;;;9.88;;
6203;SDS011;3135;42.602;23.468;2023-11-21T13:03:29;24.70;;;9.40;;
6203;SDS011;3135;42.602;23.468;2023-11-21T13:05:55;23.23;;;9.13;;
6203;SDS011;3135;42.602;23.468;2023-11-21T13:08:22;22.23;;;9.33;;
6203;SDS011;3135;42.602;23.468;2023-11-21T13:10:53;35.60;;;12.93;;
6203;SDS011;3135;42.602;23.468;2023-11-21T13:13:21;33.22;;;13.15;;
6203;SDS011;3135;42.602;23.468;2023-11-21T13:15:49;29.27;;;11.95;;
6203;SDS011;3135;42.602;23.468;2023-11-21T13:18:17;29.80;;;11.50;;
6203;SDS011;3135;42.602;23.468;2023-11-21T13:20:43;29.80;;;11.87;;
6203;SDS011;3135;42.602;23.468;2023-11-21T13:23:09;26.33;;;11.60;;
6203;SDS011;3135;42.602;23.468;2023-11-21T13:25:41;26.95;;;12.15;;
6203;SDS011;3135;42.602;23.468;2023-11-21T13:28:13;31.20;;;12.32;;
6203;SDS011;3135;42.602;23.468;2023-11-21T13:30:46;29.58;;;12.07;;
6203;SDS011;3135;42.602;23.468;2023-11-21T13:33:13;35.45;;;12.07;;
6203;SDS011;3135;42.602;23.468;2023-11-21T13:35:42;28.48;;;11.07;;
6203;SDS011;3135;42.602;23.468;2023-11-21T13:38:13;26.70;;;10.63;;
6203;SDS011;3135;42.602;23.468;2023-11-21T13:40:42;22.80;;;10.27;;
6203;SDS011;3135;42.602;23.468;2023-11-21T13:43:14;22.70;;;10.13;;
6203;SDS011;3135;42.602;23.468;2023-11-21T13:45:40;25.50;;;10.53;;
6203;SDS011;3135;42.602;23.468;2023-11-21T13:48:07;76.13;;;24.17;;
6203;SDS011;3135;42.602;23.468;2023-11-21T13:50:39;91.28;;;31.45;;
6203;SDS011;3135;42.602;23.468;2023-11-21T13:53:09;73.57;;;25.40;;
6203;SDS011;3135;42.602;23.468;2023-11-21T13:55:48;55.53;;;19.13;;
6203;SDS011;3135;42.602;23.468;2023-11-21T13:58:14;52.10;;;17.40;;
6203;SDS011;3135;42.602;23.468;2023-11-21T14:00:45;52.20;;;17.27;;
6203;SDS011;3135;42.602;23.468;2023-11-21T14:03:14;59.60;;;21.98;;
6203;SDS011;3135;42.602;23.468;2023-11-21T14:05:46;61.63;;;21.45;;
6203;SDS011;3135;42.602;23.468;2023-11-21T14:08:15;51.17;;;18.07;;
6203;SDS011;3135;42.602;23.468;2023-11-21T14:10:45;58.97;;;20.30;;
6203;SDS011;3135;42.602;23.468;2023-11-21T14:13:16;97.28;;;31.20;;
6203;SDS011;3135;42.602;23.468;2023-11-21T14:15:42;55.97;;;19.37;;
6203;SDS011;3135;42.602;23.468;2023-11-21T14:18:11;40.45;;;14.93;;
6203;SDS011;3135;42.602;23.468;2023-11-21T14:20:42;33.05;;;12.63;;
6203;SDS011;3135;42.602;23.468;2023-11-21T14:23:07;37.17;;;15.10;;
6203;SDS011;3135;42.602;23.468;2023-11-21T14:25:35;36.20;;;12.88;;
6203;SDS011;3135;42.602;23.468;2023-11-21T14:28:02;30.75;;;12.20;;
6203;SDS011;3135;42.602;23.468;2023-11-21T14:30:31;41.05;;;14.95;;
6203;SDS011;3135;42.602;23.468;2023-11-21T14:32:58;48.45;;;19.35;;
6203;SDS011;3135;42.602;23.468;2023-11-21T14:35:24;30.53;;;12.67;;
6203;SDS011;3135;42.602;23.468;2023-11-21T14:37:49;20.90;;;8.45;;
6203;SDS011;3135;42.602;23.468;2023-11-21T14:40:15;13.20;;;6.75;;
6203;SDS011;3135;42.602;23.468;2023-11-21T14:42:43;16.33;;;7.32;;
6203;SDS011;3135;42.602;23.468;2023-11-21T14:45:12;21.95;;;9.35;;
6203;SDS011;3135;42.602;23.468;2023-11-21T14:47:38;17.75;;;7.78;;
6203;SDS011;3135;42.602;23.468;2023-11-21T14:50:09;15.35;;;7.20;;
6203;SDS011;3135;42.602;23.468;2023-11-21T14:53:10;10.30;;;4.93;;
6203;SDS011;3135;42.602;23.468;2023-11-21T14:55:38;15.95;;;7.00;;
6203;SDS011;3135;42.602;23.468;2023-11-21T14:58:16;11.60;;;5.15;;
6203;SDS011;3135;42.602;23.468;2023-11-21T15:00:51;11.05;;;5.47;;
6203;SDS011;3135;42.602;23.468;2023-11-21T15:03:27;11.27;;;5.40;;
6203;SDS011;3135;42.602;23.468;2023-11-21T15:05:57;12.80;;;5.70;;